sensor_id;sensor_type;location;lat;lon;timestamp;P1;durP1;ratioP1;P2;durP2;ratioP2
12577;SDS011;6354;51.026;8.968;2022-11-20T00:01:03;1999.90;;;999.90;;
12577;SDS011;6354;51.026;8.968;2022-11-20T00:03:33;1999.90;;;999.90;;
12577;SDS011;6354;51.026;8.968;2022-11-20T00:06:01;1999.90;;;999.90;;
12577;SDS011;6354;51.026;8.968;2022-11-20T00:08:33;1999.90;;;999.90;;
12577;SDS011;6354;51.026;8.968;2022-11-20T00:11:02;1492.73;;;949.23;;
12577;SDS011;6354;51.026;8.968;2022-11-20T00:13:31;1660.40;;;999.90;;
12577;SDS011;6354;51.026;8.968;2022-11-20T00:16:00;1999.90;;;999.90;;
12577;SDS011;6354;51.026;8.968;2022-11-20T00:18:30;1999.90;;;999.90;;
12577;SDS011;6354;51.026;8.968;2022-11-20T00:21:00;1999.90;;;999.90;;
12577;SDS011;6354;51.026;8.968;2022-11-20T00:23:31;1999.90;;;999.90;;
12577;SDS011;6354;51.026;8.968;2022-11-20T00:26:01;1961.80;;;999.90;;
12577;SDS011;6354;51.026;8.968;2022-11-20T00:28:30;1999.90;;;999.90;;
12577;SDS011;6354;51.026;8.968;2022-11-20T00:31:02;1929.47;;;999.90;;
12577;SDS011;6354;51.026;8.968;2022-11-20T00:33:31;1920.30;;;999.90;;
12577;SDS011;6354;51.026;8.968;2022-11-20T00:36:00;1999.90;;;999.90;;
12577;SDS011;6354;51.026;8.968;2022-11-20T00:38:29;1998.50;;;999.90;;
12577;SDS011;6354;51.026;8.968;2022-11-20T00:40:59;1999.90;;;999.90;;
12577;SDS011;6354;51.026;8.968;2022-11-20T00:43:28;1999.90;;;999.90;;
12577;SDS011;6354;51.026;8.968;2022-11-20T00:45:57;1999.90;;;999.90;;
12577;SDS011;6354;51.026;8.968;2022-11-20T00:48:25;1999.90;;;999.90;;
12577;SDS011;6354;51.026;8.968;2022-11-20T00:50:53;1999.90;;;999.90;;
12577;SDS011;6354;51.026;8.968;2022-11-20T00:53:23;1999.90;;;999.90;;
12577;SDS011;6354;51.026;8.968;2022-11-20T00:55:56;1999.90;;;999.90;;
12577;SDS011;6354;51.026;8.968;2022-11-20T00:58:28;1562.77;;;999.90;;
12577;SDS011;6354;51.026;8.968;2022-11-20T01:01:00;1872.97;;;999.90;;
12577;SDS011;6354;51.026;8.968;2022-11-20T01:03:30;1772.80;;;999.90;;
12577;SDS011;6354;51.026;8.968;2022-11-20T01:05:59;1992.80;;;999.90;;
12577;SDS011;6354;51.026;8.968;2022-11-20T01:08:29;1999.90;;;999.90;;
12577;SDS011;6354;51.026;8.968;2022-11-20T01:11:00;1900.23;;;999.90;;
12577;SDS011;6354;51.026;8.968;2022-11-20T01:13:29;1999.90;;;999.90;;
12577;SDS011;6354;51.026;8.968;2022-11-20T01:16:04;1815.27;;;999.90;;
12577;SDS011;6354;51.026;8.968;2022-11-20T01:18:33;1999.90;;;999.90;;
12577;SDS011;6354;51.026;8.968;2022-11-20T01:21:02;1999.90;;;999.90;;
12577;SDS011;6354;51.026;8.968;2022-11-20T01:23:32;1983.40;;;999.90;;
12577;SDS011;6354;51.026;8.968;2022-11-20T01:26:02;1999.90;;;999.90;;
12577;SDS011;6354;51.026;8.968;2022-11-20T01:28:31;1999.90;;;999.90;;
12577;SDS011;6354;51.026;8.968;2022-11-20T01:31:00;1993.77;;;999.90;;
12577;SDS011;6354;51.026;8.968;2022-11-20T01:33:28;1989.77;;;999.90;;
12577;SDS011;6354;51.026;8.968;2022-11-20T01:36:02;1983.97;;;999.90;;
12577;SDS011;6354;51.026;8.968;2022-11-20T01:38:31;1999.90;;;999.90;;
12577;SDS011;6354;51.026;8.968;2022-11-20T01:41:00;1991.57;;;999.90;;
12577;SDS011;6354;51.026;8.968;2022-11-20T01:43:29;1710.47;;;999.90;;
12577;SDS011;6354;51.026;8.968;2022-11-20T01:45:58;1793.03;;;999.90;;
12577;SDS011;6354;51.026;8.968;2022-11-20T01:48:36;1849.37;;;999.90;;
12577;SDS011;6354;51.026;8.968;2022-11-20T01:51:10;1536.43;;;999.90;;
12577;SDS011;6354;51.026;8.968;2022-11-20T01:53:42;1823.97;;;999.90;;
12577;SDS011;6354;51.026;8.968;2022-11-20T01:56:11;1999.90;;;999.90;;
12577;SDS011;6354;51.026;8.968;2022-11-20T01:58:45;1999.90;;;999.90;;
12577;SDS011;6354;51.026;8.968;2022-11-20T02:01:15;1381.70;;;953.10;;
12577;SDS011;6354;51.026;8.968;2022-11-20T02:03:44;1474.90;;;960.90;;
12577;SDS011;6354;51.026;8.968;2022-11-20T02:06:14;1812.70;;;999.10;;
12577;SDS011;6354;51.026;8.968;2022-11-20T02:08:46;1352.80;;;902.37;;
12577;SDS011;6354;51.026;8.968;2022-11-20T02:11:14;890.90;;;681.27;;
12577;SDS011;6354;51.026;8.968;2022-11-20T02:13:44;1791.87;;;839.83;;
12577;SDS011;6354;51.026;8.968;2022-11-20T02:16:13;1999.90;;;999.90;;
12577;SDS011;6354;51.026;8.968;2022-11-20T02:18:43;1999.90;;;999.90;;
12577;SDS011;6354;51.026;8.968;2022-11-20T02:21:24;1747.67;;;849.70;;
12577;SDS011;6354;51.026;8.968;2022-11-20T02:24:02;1999.90;;;999.90;;
12577;SDS011;6354;51.026;8.968;2022-11-20T02:26:33;1999.90;;;999.90;;
12577;SDS011;6354;51.026;8.968;2022-11-20T02:29:06;1534.27;;;928.10;;
12577;SDS011;6354;51.026;8.968;2022-11-20T02:31:37;1999.90;;;992.47;;
12577;SDS011;6354;51.026;8.968;2022-11-20T02:34:08;1378.07;;;980.33;;
12577;SDS011;6354;51.026;8.968;2022-11-20T02:36:36;1035.63;;;702.40;;
12577;SDS011;6354;51.026;8.968;2022-11-20T02:39:08;589.83;;;528.13;;
12577;SDS011;6354;51.026;8.968;2022-11-20T02:41:38;585.07;;;473.60;;
12577;SDS011;6354;51.026;8.968;2022-11-20T02:44:06;515.97;;;451.33;;
12577;SDS011;6354;51.026;8.968;2022-11-20T02:46:34;835.57;;;610.00;;
12577;SDS011;6354;51.026;8.968;2022-11-20T02:49:02;845.00;;;722.57;;
12577;SDS011;6354;51.026;8.968;2022-11-20T02:51:31;731.83;;;596.73;;
12577;SDS011;6354;51.026;8.968;2022-11-20T02:53:59;628.53;;;560.57;;
12577;SDS011;6354;51.026;8.968;2022-11-20T02:56:29;801.07;;;614.67;;
12577;SDS011;6354;51.026;8.968;2022-11-20T02:58:57;726.13;;;619.47;;
12577;SDS011;6354;51.026;8.968;2022-11-20T03:01:25;1584.07;;;709.77;;
12577;SDS011;6354;51.026;8.968;2022-11-20T03:03:53;561.07;;;343.03;;
12577;SDS011;6354;51.026;8.968;2022-11-20T03:06:22;1519.57;;;785.73;;
12577;SDS011;6354;51.026;8.968;2022-11-20T03:08:50;1455.27;;;634.27;;
12577;SDS011;6354;51.026;8.968;2022-11-20T03:11:18;199.27;;;181.23;;
12577;SDS011;6354;51.026;8.968;2022-11-20T03:13:47;336.50;;;299.70;;
12577;SDS011;6354;51.026;8.968;2022-11-20T03:16:16;292.20;;;261.27;;
12577;SDS011;6354;51.026;8.968;2022-11-20T03:18:45;546.60;;;355.57;;
12577;SDS011;6354;51.026;8.968;2022-11-20T03:21:13;461.43;;;387.50;;
12577;SDS011;6354;51.026;8.968;2022-11-20T03:23:42;268.67;;;239.20;;
12577;SDS011;6354;51.026;8.968;2022-11-20T03:26:11;258.70;;;231.07;;
12577;SDS011;6354;51.026;8.968;2022-11-20T03:28:41;1999.90;;;711.40;;
12577;SDS011;6354;51.026;8.968;2022-11-20T03:31:12;364.97;;;325.77;;
12577;SDS011;6354;51.026;8.968;2022-11-20T03:33:42;241.03;;;204.07;;
12577;SDS011;6354;51.026;8.968;2022-11-20T03:36:11;166.13;;;150.30;;
12577;SDS011;6354;51.026;8.968;2022-11-20T03:38:41;237.33;;;211.20;;
12577;SDS011;6354;51.026;8.968;2022-11-20T03:41:10;219.87;;;189.57;;
12577;SDS011;6354;51.026;8.968;2022-11-20T03:43:39;492.13;;;437.93;;
12577;SDS011;6354;51.026;8.968;2022-11-20T03:46:08;1999.90;;;900.73;;
12577;SDS011;6354;51.026;8.968;2022-11-20T03:48:37;442.20;;;398.90;;
12577;SDS011;6354;51.026;8.968;2022-11-20T03:51:09;433.90;;;387.83;;
12577;SDS011;6354;51.026;8.968;2022-11-20T03:53:38;421.93;;;377.67;;
12577;SDS011;6354;51.026;8.968;2022-11-20T03:56:07;522.10;;;286.30;;
12577;SDS011;6354;51.026;8.968;2022-11-20T03:58:37;348.17;;;193.73;;
12577;SDS011;6354;51.026;8.968;2022-11-20T04:01:07;340.43;;;290.03;;
12577;SDS011;6354;51.026;8.968;2022-11-20T04:03:36;427.20;;;274.40;;
12577;SDS011;6354;51.026;8.968;2022-11-20T04:06:07;514.07;;;335.90;;
12577;SDS011;6354;51.026;8.968;2022-11-20T04:08:37;353.40;;;197.93;;
12577;SDS011;6354;51.026;8.968;2022-11-20T04:11:09;353.47;;;171.83;;
12577;SDS011;6354;51.026;8.968;2022-11-20T04:13:38;173.93;;;155.93;;
12577;SDS011;6354;51.026;8.968;2022-11-20T04:16:07;82.53;;;51.47;;
12577;SDS011;6354;51.026;8.968;2022-11-20T04:18:38;246.53;;;149.80;;
12577;SDS011;6354;51.026;8.968;2022-11-20T04:21:06;83.53;;;57.77;;
12577;SDS011;6354;51.026;8.968;2022-11-20T04:23:34;356.67;;;287.90;;
12577;SDS011;6354;51.026;8.968;2022-11-20T04:26:03;358.37;;;159.10;;
12577;SDS011;6354;51.026;8.968;2022-11-20T04:28:33;363.67;;;299.00;;
12577;SDS011;6354;51.026;8.968;2022-11-20T04:31:02;437.60;;;318.97;;
12577;SDS011;6354;51.026;8.968;2022-11-20T04:33:31;787.90;;;332.37;;
12577;SDS011;6354;51.026;8.968;2022-11-20T04:36:02;204.47;;;166.20;;
12577;SDS011;6354;51.026;8.968;2022-11-20T04:38:31;235.57;;;180.33;;
12577;SDS011;6354;51.026;8.968;2022-11-20T04:41:00;213.40;;;189.97;;
12577;SDS011;6354;51.026;8.968;2022-11-20T04:43:29;170.43;;;138.90;;
12577;SDS011;6354;51.026;8.968;2022-11-20T04:45:58;176.20;;;138.47;;
12577;SDS011;6354;51.026;8.968;2022-11-20T04:48:27;224.43;;;174.60;;
12577;SDS011;6354;51.026;8.968;2022-11-20T04:50:56;172.03;;;138.63;;
12577;SDS011;6354;51.026;8.968;2022-11-20T04:53:25;249.97;;;158.37;;
12577;SDS011;6354;51.026;8.968;2022-11-20T04:55:58;212.13;;;183.53;;
12577;SDS011;6354;51.026;8.968;2022-11-20T04:58:27;226.83;;;201.90;;
12577;SDS011;6354;51.026;8.968;2022-11-20T05:01:00;181.17;;;134.17;;
12577;SDS011;6354;51.026;8.968;2022-11-20T05:03:29;168.70;;;140.70;;
12577;SDS011;6354;51.026;8.968;2022-11-20T05:05:59;109.20;;;66.83;;
12577;SDS011;6354;51.026;8.968;2022-11-20T05:08:29;304.90;;;184.50;;
12577;SDS011;6354;51.026;8.968;2022-11-20T05:11:01;156.93;;;86.47;;
12577;SDS011;6354;51.026;8.968;2022-11-20T05:13:29;275.33;;;211.00;;
12577;SDS011;6354;51.026;8.968;2022-11-20T05:16:00;266.03;;;156.30;;
12577;SDS011;6354;51.026;8.968;2022-11-20T05:18:29;198.80;;;119.80;;
12577;SDS011;6354;51.026;8.968;2022-11-20T05:20:57;252.83;;;189.97;;
12577;SDS011;6354;51.026;8.968;2022-11-20T05:23:26;277.40;;;181.80;;
12577;SDS011;6354;51.026;8.968;2022-11-20T05:25:56;134.13;;;79.60;;
12577;SDS011;6354;51.026;8.968;2022-11-20T05:28:25;146.33;;;123.73;;
12577;SDS011;6354;51.026;8.968;2022-11-20T05:30:54;344.33;;;261.10;;
12577;SDS011;6354;51.026;8.968;2022-11-20T05:33:22;208.57;;;134.27;;
12577;SDS011;6354;51.026;8.968;2022-11-20T05:35:50;166.87;;;112.77;;
12577;SDS011;6354;51.026;8.968;2022-11-20T05:38:18;204.37;;;113.77;;
12577;SDS011;6354;51.026;8.968;2022-11-20T05:40:47;156.77;;;104.80;;
12577;SDS011;6354;51.026;8.968;2022-11-20T05:43:15;294.47;;;150.80;;
12577;SDS011;6354;51.026;8.968;2022-11-20T05:45:51;282.47;;;180.30;;
12577;SDS011;6354;51.026;8.968;2022-11-20T05:48:19;407.83;;;194.37;;
12577;SDS011;6354;51.026;8.968;2022-11-20T05:50:48;135.63;;;87.00;;
12577;SDS011;6354;51.026;8.968;2022-11-20T05:53:16;123.17;;;73.90;;
12577;SDS011;6354;51.026;8.968;2022-11-20T05:55:44;344.37;;;230.43;;
12577;SDS011;6354;51.026;8.968;2022-11-20T05:58:13;109.17;;;71.33;;
12577;SDS011;6354;51.026;8.968;2022-11-20T06:00:41;107.77;;;58.07;;
12577;SDS011;6354;51.026;8.968;2022-11-20T06:03:09;140.83;;;100.63;;
12577;SDS011;6354;51.026;8.968;2022-11-20T06:05:37;183.23;;;130.37;;
12577;SDS011;6354;51.026;8.968;2022-11-20T06:08:05;231.63;;;142.60;;
12577;SDS011;6354;51.026;8.968;2022-11-20T06:10:33;157.53;;;91.90;;
12577;SDS011;6354;51.026;8.968;2022-11-20T06:13:02;175.33;;;118.57;;
12577;SDS011;6354;51.026;8.968;2022-11-20T06:15:31;196.67;;;121.10;;
12577;SDS011;6354;51.026;8.968;2022-11-20T06:17:59;228.20;;;137.67;;
12577;SDS011;6354;51.026;8.968;2022-11-20T06:20:27;241.83;;;158.37;;
12577;SDS011;6354;51.026;8.968;2022-11-20T06:22:55;182.00;;;120.50;;
12577;SDS011;6354;51.026;8.968;2022-11-20T06:25:23;167.07;;;104.37;;
12577;SDS011;6354;51.026;8.968;2022-11-20T06:27:51;281.93;;;148.30;;
12577;SDS011;6354;51.026;8.968;2022-11-20T06:30:19;181.20;;;107.50;;
12577;SDS011;6354;51.026;8.968;2022-11-20T06:32:49;235.90;;;154.83;;
12577;SDS011;6354;51.026;8.968;2022-11-20T06:35:17;201.47;;;120.67;;
12577;SDS011;6354;51.026;8.968;2022-11-20T06:37:45;175.47;;;117.33;;
12577;SDS011;6354;51.026;8.968;2022-11-20T06:40:13;269.07;;;145.97;;
12577;SDS011;6354;51.026;8.968;2022-11-20T06:42:41;184.47;;;116.13;;
12577;SDS011;6354;51.026;8.968;2022-11-20T06:45:09;220.07;;;133.53;;
12577;SDS011;6354;51.026;8.968;2022-11-20T06:47:37;223.50;;;154.23;;
12577;SDS011;6354;51.026;8.968;2022-11-20T06:50:07;180.67;;;125.93;;
12577;SDS011;6354;51.026;8.968;2022-11-20T06:52:35;129.57;;;67.60;;
12577;SDS011;6354;51.026;8.968;2022-11-20T06:55:09;172.77;;;112.03;;
12577;SDS011;6354;51.026;8.968;2022-11-20T06:57:37;168.23;;;88.80;;
12577;SDS011;6354;51.026;8.968;2022-11-20T07:00:05;179.77;;;111.97;;
12577;SDS011;6354;51.026;8.968;2022-11-20T07:02:34;135.23;;;80.90;;
12577;SDS011;6354;51.026;8.968;2022-11-20T07:05:02;145.13;;;88.37;;
12577;SDS011;6354;51.026;8.968;2022-11-20T07:07:32;151.60;;;102.50;;
12577;SDS011;6354;51.026;8.968;2022-11-20T07:10:00;116.53;;;69.70;;
12577;SDS011;6354;51.026;8.968;2022-11-20T07:12:28;221.13;;;106.13;;
12577;SDS011;6354;51.026;8.968;2022-11-20T07:14:57;303.97;;;142.17;;
12577;SDS011;6354;51.026;8.968;2022-11-20T07:17:25;265.23;;;156.13;;
12577;SDS011;6354;51.026;8.968;2022-11-20T07:19:54;232.67;;;185.80;;
12577;SDS011;6354;51.026;8.968;2022-11-20T07:22:22;227.03;;;136.20;;
12577;SDS011;6354;51.026;8.968;2022-11-20T07:24:52;293.50;;;150.27;;
12577;SDS011;6354;51.026;8.968;2022-11-20T07:27:21;113.53;;;54.97;;
12577;SDS011;6354;51.026;8.968;2022-11-20T07:29:49;116.60;;;68.93;;
12577;SDS011;6354;51.026;8.968;2022-11-20T07:32:17;259.17;;;179.17;;
12577;SDS011;6354;51.026;8.968;2022-11-20T07:34:45;164.00;;;92.20;;
12577;SDS011;6354;51.026;8.968;2022-11-20T07:37:13;176.13;;;109.93;;
12577;SDS011;6354;51.026;8.968;2022-11-20T07:39:42;137.40;;;64.60;;
12577;SDS011;6354;51.026;8.968;2022-11-20T07:42:11;194.70;;;105.57;;
12577;SDS011;6354;51.026;8.968;2022-11-20T07:44:39;152.50;;;87.63;;
12577;SDS011;6354;51.026;8.968;2022-11-20T07:47:07;286.37;;;202.20;;
12577;SDS011;6354;51.026;8.968;2022-11-20T07:49:35;157.73;;;81.73;;
12577;SDS011;6354;51.026;8.968;2022-11-20T07:52:03;163.00;;;88.07;;
12577;SDS011;6354;51.026;8.968;2022-11-20T07:54:31;254.37;;;99.67;;
12577;SDS011;6354;51.026;8.968;2022-11-20T07:56:59;152.73;;;84.10;;
12577;SDS011;6354;51.026;8.968;2022-11-20T07:59:29;214.47;;;109.73;;
12577;SDS011;6354;51.026;8.968;2022-11-20T08:01:57;137.90;;;80.97;;
12577;SDS011;6354;51.026;8.968;2022-11-20T08:04:25;178.30;;;114.83;;
12577;SDS011;6354;51.026;8.968;2022-11-20T08:06:53;192.83;;;121.13;;
12577;SDS011;6354;51.026;8.968;2022-11-20T08:09:21;174.97;;;97.83;;
12577;SDS011;6354;51.026;8.968;2022-11-20T08:11:49;191.37;;;96.17;;
12577;SDS011;6354;51.026;8.968;2022-11-20T08:14:36;219.63;;;93.70;;
12577;SDS011;6354;51.026;8.968;2022-11-20T08:17:04;149.67;;;82.03;;
12577;SDS011;6354;51.026;8.968;2022-11-20T08:19:32;140.07;;;56.93;;
12577;SDS011;6354;51.026;8.968;2022-11-20T08:22:00;191.37;;;108.70;;
12577;SDS011;6354;51.026;8.968;2022-11-20T08:24:28;207.70;;;130.00;;
12577;SDS011;6354;51.026;8.968;2022-11-20T08:26:56;192.13;;;133.17;;
12577;SDS011;6354;51.026;8.968;2022-11-20T08:29:25;144.30;;;78.63;;
12577;SDS011;6354;51.026;8.968;2022-11-20T08:31:55;175.10;;;84.23;;
12577;SDS011;6354;51.026;8.968;2022-11-20T08:34:23;167.30;;;91.67;;
12577;SDS011;6354;51.026;8.968;2022-11-20T08:36:51;126.50;;;81.33;;
12577;SDS011;6354;51.026;8.968;2022-11-20T08:39:19;166.53;;;86.97;;
12577;SDS011;6354;51.026;8.968;2022-11-20T08:41:47;156.87;;;80.93;;
12577;SDS011;6354;51.026;8.968;2022-11-20T08:44:15;195.30;;;80.83;;
12577;SDS011;6354;51.026;8.968;2022-11-20T08:46:44;157.60;;;81.53;;
12577;SDS011;6354;51.026;8.968;2022-11-20T08:49:14;221.43;;;114.03;;
12577;SDS011;6354;51.026;8.968;2022-11-20T08:51:44;215.53;;;114.63;;
12577;SDS011;6354;51.026;8.968;2022-11-20T08:54:14;172.43;;;71.07;;
12577;SDS011;6354;51.026;8.968;2022-11-20T08:56:45;131.33;;;69.53;;
12577;SDS011;6354;51.026;8.968;2022-11-20T08:59:13;154.87;;;68.43;;
12577;SDS011;6354;51.026;8.968;2022-11-20T09:02:01;158.33;;;85.37;;
12577;SDS011;6354;51.026;8.968;2022-11-20T09:04:31;135.03;;;62.90;;
12577;SDS011;6354;51.026;8.968;2022-11-20T09:06:59;176.90;;;98.93;;
12577;SDS011;6354;51.026;8.968;2022-11-20T09:09:28;194.27;;;110.83;;
12577;SDS011;6354;51.026;8.968;2022-11-20T09:11:56;174.37;;;91.53;;
12577;SDS011;6354;51.026;8.968;2022-11-20T09:14:24;162.93;;;83.67;;
12577;SDS011;6354;51.026;8.968;2022-11-20T09:16:55;154.10;;;81.73;;
12577;SDS011;6354;51.026;8.968;2022-11-20T09:19:24;165.23;;;113.20;;
12577;SDS011;6354;51.026;8.968;2022-11-20T09:22:02;165.87;;;98.50;;
12577;SDS011;6354;51.026;8.968;2022-11-20T09:24:31;161.07;;;69.53;;
12577;SDS011;6354;51.026;8.968;2022-11-20T09:27:01;219.27;;;119.60;;
12577;SDS011;6354;51.026;8.968;2022-11-20T09:29:30;197.83;;;111.17;;
12577;SDS011;6354;51.026;8.968;2022-11-20T09:31:58;233.93;;;129.07;;
12577;SDS011;6354;51.026;8.968;2022-11-20T09:34:26;105.17;;;55.30;;
12577;SDS011;6354;51.026;8.968;2022-11-20T09:36:54;256.43;;;135.97;;
12577;SDS011;6354;51.026;8.968;2022-11-20T09:39:26;140.40;;;71.87;;
12577;SDS011;6354;51.026;8.968;2022-11-20T09:42:02;145.77;;;84.23;;
12577;SDS011;6354;51.026;8.968;2022-11-20T09:47:44;173.17;;;109.13;;
12577;SDS011;6354;51.026;8.968;2022-11-20T09:50:29;172.27;;;90.50;;
12577;SDS011;6354;51.026;8.968;2022-11-20T09:53:11;160.53;;;95.00;;
12577;SDS011;6354;51.026;8.968;2022-11-20T09:55:44;110.47;;;53.40;;
12577;SDS011;6354;51.026;8.968;2022-11-20T09:58:15;136.50;;;83.90;;
12577;SDS011;6354;51.026;8.968;2022-11-20T10:00:49;154.97;;;92.17;;
12577;SDS011;6354;51.026;8.968;2022-11-20T10:03:24;204.33;;;113.83;;
12577;SDS011;6354;51.026;8.968;2022-11-20T10:06:03;110.80;;;57.80;;
12577;SDS011;6354;51.026;8.968;2022-11-20T10:08:39;135.93;;;83.77;;
12577;SDS011;6354;51.026;8.968;2022-11-20T10:11:13;123.43;;;70.93;;
12577;SDS011;6354;51.026;8.968;2022-11-20T10:13:48;132.27;;;69.83;;
12577;SDS011;6354;51.026;8.968;2022-11-20T10:16:26;174.03;;;102.23;;
12577;SDS011;6354;51.026;8.968;2022-11-20T10:19:10;140.90;;;83.77;;
12577;SDS011;6354;51.026;8.968;2022-11-20T10:21:51;175.37;;;94.77;;
12577;SDS011;6354;51.026;8.968;2022-11-20T10:24:29;168.33;;;80.40;;
12577;SDS011;6354;51.026;8.968;2022-11-20T10:27:14;289.17;;;115.80;;
12577;SDS011;6354;51.026;8.968;2022-11-20T10:29:59;271.33;;;112.23;;
12577;SDS011;6354;51.026;8.968;2022-11-20T10:32:31;144.20;;;89.80;;
12577;SDS011;6354;51.026;8.968;2022-11-20T10:35:05;101.77;;;58.53;;
12577;SDS011;6354;51.026;8.968;2022-11-20T10:37:42;119.33;;;66.03;;
12577;SDS011;6354;51.026;8.968;2022-11-20T10:40:17;124.50;;;75.97;;
12577;SDS011;6354;51.026;8.968;2022-11-20T10:42:51;164.13;;;102.83;;
12577;SDS011;6354;51.026;8.968;2022-11-20T10:45:29;130.07;;;71.20;;
12577;SDS011;6354;51.026;8.968;2022-11-20T10:48:08;212.70;;;132.07;;
12577;SDS011;6354;51.026;8.968;2022-11-20T10:50:49;153.03;;;100.57;;
12577;SDS011;6354;51.026;8.968;2022-11-20T10:53:31;133.23;;;86.70;;
12577;SDS011;6354;51.026;8.968;2022-11-20T10:56:09;127.63;;;81.63;;
12577;SDS011;6354;51.026;8.968;2022-11-20T10:58:48;546.40;;;199.33;;
12577;SDS011;6354;51.026;8.968;2022-11-20T11:01:29;144.27;;;76.90;;
12577;SDS011;6354;51.026;8.968;2022-11-20T11:03:57;103.50;;;59.37;;
12577;SDS011;6354;51.026;8.968;2022-11-20T11:06:28;211.10;;;119.43;;
12577;SDS011;6354;51.026;8.968;2022-11-20T11:09:04;195.27;;;102.67;;
12577;SDS011;6354;51.026;8.968;2022-11-20T11:11:39;121.93;;;74.43;;
12577;SDS011;6354;51.026;8.968;2022-11-20T11:14:10;167.73;;;93.33;;
12577;SDS011;6354;51.026;8.968;2022-11-20T11:16:48;145.40;;;71.83;;
12577;SDS011;6354;51.026;8.968;2022-11-20T11:19:19;109.00;;;64.77;;
12577;SDS011;6354;51.026;8.968;2022-11-20T11:21:49;125.23;;;71.07;;
12577;SDS011;6354;51.026;8.968;2022-11-20T11:24:21;243.13;;;120.03;;
12577;SDS011;6354;51.026;8.968;2022-11-20T11:27:10;121.07;;;82.03;;
12577;SDS011;6354;51.026;8.968;2022-11-20T11:29:44;121.03;;;73.33;;
12577;SDS011;6354;51.026;8.968;2022-11-20T11:32:13;153.97;;;96.17;;
12577;SDS011;6354;51.026;8.968;2022-11-20T11:34:43;322.60;;;95.03;;
12577;SDS011;6354;51.026;8.968;2022-11-20T11:37:13;116.73;;;79.47;;
12577;SDS011;6354;51.026;8.968;2022-11-20T11:39:44;136.13;;;91.70;;
12577;SDS011;6354;51.026;8.968;2022-11-20T11:42:34;197.17;;;108.13;;
12577;SDS011;6354;51.026;8.968;2022-11-20T11:45:13;386.33;;;129.83;;
12577;SDS011;6354;51.026;8.968;2022-11-20T11:47:44;304.43;;;173.50;;
12577;SDS011;6354;51.026;8.968;2022-11-20T11:50:15;197.70;;;86.93;;
12577;SDS011;6354;51.026;8.968;2022-11-20T11:52:46;95.63;;;56.40;;
12577;SDS011;6354;51.026;8.968;2022-11-20T11:55:23;200.27;;;91.33;;
12577;SDS011;6354;51.026;8.968;2022-11-20T11:57:59;107.43;;;56.33;;
12577;SDS011;6354;51.026;8.968;2022-11-20T12:00:41;619.80;;;168.87;;
12577;SDS011;6354;51.026;8.968;2022-11-20T12:03:18;126.13;;;82.90;;
12577;SDS011;6354;51.026;8.968;2022-11-20T12:05:50;160.67;;;89.50;;
12577;SDS011;6354;51.026;8.968;2022-11-20T12:08:25;268.00;;;107.90;;
12577;SDS011;6354;51.026;8.968;2022-11-20T12:10:58;282.13;;;158.63;;
12577;SDS011;6354;51.026;8.968;2022-11-20T12:13:40;94.13;;;77.17;;
12577;SDS011;6354;51.026;8.968;2022-11-20T12:16:14;167.60;;;103.07;;
12577;SDS011;6354;51.026;8.968;2022-11-20T12:18:45;188.33;;;87.57;;
12577;SDS011;6354;51.026;8.968;2022-11-20T12:21:20;150.10;;;63.10;;
12577;SDS011;6354;51.026;8.968;2022-11-20T12:24:06;96.93;;;65.07;;
12577;SDS011;6354;51.026;8.968;2022-11-20T12:26:54;110.47;;;78.87;;
12577;SDS011;6354;51.026;8.968;2022-11-20T12:29:33;111.47;;;89.60;;
12577;SDS011;6354;51.026;8.968;2022-11-20T12:32:34;106.17;;;77.83;;
12577;SDS011;6354;51.026;8.968;2022-11-20T12:35:30;362.93;;;101.13;;
12577;SDS011;6354;51.026;8.968;2022-11-20T12:38:20;461.93;;;148.80;;
12577;SDS011;6354;51.026;8.968;2022-11-20T12:41:00;106.57;;;73.90;;
12577;SDS011;6354;51.026;8.968;2022-11-20T12:43:36;254.77;;;122.33;;
12577;SDS011;6354;51.026;8.968;2022-11-20T12:46:27;73.77;;;49.53;;
12577;SDS011;6354;51.026;8.968;2022-11-20T12:49:09;113.40;;;78.93;;
12577;SDS011;6354;51.026;8.968;2022-11-20T12:51:59;105.63;;;74.97;;
12577;SDS011;6354;51.026;8.968;2022-11-20T12:57:44;99.50;;;62.27;;
12577;SDS011;6354;51.026;8.968;2022-11-20T13:00:17;88.13;;;60.63;;
12577;SDS011;6354;51.026;8.968;2022-11-20T13:05:43;104.70;;;80.13;;
12577;SDS011;6354;51.026;8.968;2022-11-20T13:08:21;74.10;;;47.63;;
12577;SDS011;6354;51.026;8.968;2022-11-20T13:10:53;146.67;;;85.60;;
12577;SDS011;6354;51.026;8.968;2022-11-20T13:13:29;78.37;;;48.57;;
12577;SDS011;6354;51.026;8.968;2022-11-20T13:16:08;100.63;;;71.83;;
12577;SDS011;6354;51.026;8.968;2022-11-20T13:18:42;224.70;;;84.30;;
12577;SDS011;6354;51.026;8.968;2022-11-20T13:21:16;149.13;;;107.50;;
12577;SDS011;6354;51.026;8.968;2022-11-20T13:23:46;105.77;;;85.47;;
12577;SDS011;6354;51.026;8.968;2022-11-20T13:26:15;166.70;;;87.83;;
12577;SDS011;6354;51.026;8.968;2022-11-20T13:28:46;109.40;;;71.50;;
12577;SDS011;6354;51.026;8.968;2022-11-20T13:31:28;116.97;;;69.90;;
12577;SDS011;6354;51.026;8.968;2022-11-20T13:33:58;66.03;;;46.20;;
12577;SDS011;6354;51.026;8.968;2022-11-20T13:36:30;99.37;;;64.87;;
12577;SDS011;6354;51.026;8.968;2022-11-20T13:39:01;109.17;;;79.07;;
12577;SDS011;6354;51.026;8.968;2022-11-20T13:41:29;66.17;;;46.47;;
12577;SDS011;6354;51.026;8.968;2022-11-20T13:44:06;94.27;;;78.00;;
12577;SDS011;6354;51.026;8.968;2022-11-20T13:46:41;91.50;;;79.07;;
12577;SDS011;6354;51.026;8.968;2022-11-20T13:49:18;71.50;;;49.67;;
12577;SDS011;6354;51.026;8.968;2022-11-20T13:51:56;87.97;;;45.73;;
12577;SDS011;6354;51.026;8.968;2022-11-20T13:54:44;93.97;;;64.40;;
12577;SDS011;6354;51.026;8.968;2022-11-20T14:00:41;52.70;;;36.53;;
12577;SDS011;6354;51.026;8.968;2022-11-20T14:03:15;109.80;;;64.07;;
12577;SDS011;6354;51.026;8.968;2022-11-20T14:06:11;119.50;;;68.73;;
12577;SDS011;6354;51.026;8.968;2022-11-20T14:08:44;205.50;;;116.30;;
12577;SDS011;6354;51.026;8.968;2022-11-20T14:11:15;111.13;;;76.30;;
12577;SDS011;6354;51.026;8.968;2022-11-20T14:13:58;70.83;;;49.80;;
12577;SDS011;6354;51.026;8.968;2022-11-20T14:16:28;96.30;;;64.33;;
12577;SDS011;6354;51.026;8.968;2022-11-20T14:18:57;83.90;;;61.90;;
12577;SDS011;6354;51.026;8.968;2022-11-20T14:21:47;114.03;;;79.97;;
12577;SDS011;6354;51.026;8.968;2022-11-20T14:24:19;80.47;;;53.47;;
12577;SDS011;6354;51.026;8.968;2022-11-20T14:26:49;152.00;;;70.40;;
12577;SDS011;6354;51.026;8.968;2022-11-20T14:29:19;78.27;;;52.07;;
12577;SDS011;6354;51.026;8.968;2022-11-20T14:31:50;80.03;;;56.67;;
12577;SDS011;6354;51.026;8.968;2022-11-20T14:34:21;95.13;;;71.50;;
12577;SDS011;6354;51.026;8.968;2022-11-20T14:36:52;71.47;;;50.73;;
12577;SDS011;6354;51.026;8.968;2022-11-20T14:39:27;75.00;;;44.63;;
12577;SDS011;6354;51.026;8.968;2022-11-20T14:41:59;133.83;;;79.33;;
12577;SDS011;6354;51.026;8.968;2022-11-20T14:44:27;84.40;;;48.97;;
12577;SDS011;6354;51.026;8.968;2022-11-20T14:46:59;96.97;;;71.33;;
12577;SDS011;6354;51.026;8.968;2022-11-20T14:49:29;104.63;;;52.63;;
12577;SDS011;6354;51.026;8.968;2022-11-20T14:51:59;82.23;;;58.23;;